Terminal Aerodrome Forecast
Issued by NWS Spokane, WA

Home | Current Version | Previous Version | Text Only | Print | Product List | Glossary On
Versions: 1 2 3 4 5 6 7 8 9 10 11 12 13
000
FTUS46 KOTX 230520
TAFLWS
TAF
KLWS 230520Z 2306/2406 35010KT P6SM -SHRA BKN080 BKN150
     FM230700 26007KT P6SM VCSH BKN060 OVC100
     FM231000 17004KT P6SM SCT060 OVC120
     FM232000 29006KT P6SM BKN070 BKN120 PROB30 2320/2324 -SHRA
     FM240300 19007KT P6SM VCSH BKN080 BKN120=

USA.gov is the U.S. government's official web portal to all federal, state and local government web resources and services.